createdAt,value
2023-04-07T00:01:25.227Z,96612.25
2023-04-07T00:03:52.247Z,96605.59
2023-04-07T00:06:19.340Z,96610.00
2023-04-07T00:08:46.057Z,96606.19
2023-04-07T00:11:13.258Z,96599.31
2023-04-07T00:13:40.023Z,96605.06
2023-04-07T00:16:06.934Z,96599.63
2023-04-07T00:18:33.701Z,96586.41
2023-04-07T00:21:00.511Z,96578.38
2023-04-07T00:23:27.353Z,96573.69
2023-04-07T00:25:54.176Z,96578.84
2023-04-07T00:28:20.835Z,96559.81
2023-04-07T00:30:47.554Z,96566.97
2023-04-07T00:33:14.352Z,96561.81
2023-04-07T00:35:41.151Z,96559.53
2023-04-07T00:38:07.892Z,96559.84
2023-04-07T00:40:34.762Z,96549.38
2023-04-07T00:43:01.476Z,96551.47
2023-04-07T00:45:28.274Z,96552.72
2023-04-07T00:47:57.984Z,96548.03
2023-04-07T00:50:24.902Z,96544.06
2023-04-07T00:52:51.774Z,96559.56
2023-04-07T00:55:18.532Z,96546.19
2023-04-07T00:57:46.888Z,96546.50
2023-04-07T01:00:15.553Z,96570.03
2023-04-07T01:02:48.794Z,96559.53
2023-04-07T01:05:22.541Z,96539.50
2023-04-07T01:08:01.386Z,96534.50
2023-04-07T01:10:44.025Z,96532.66
2023-04-07T01:13:44.100Z,96529.94
2023-04-07T01:16:25.335Z,96526.72
2023-04-07T01:18:56.118Z,96528.13
2023-04-07T01:21:27.443Z,96525.22
2023-04-07T01:24:18.337Z,96525.06
2023-04-07T01:26:47.368Z,96524.47
2023-04-07T01:29:32.294Z,96526.13
2023-04-07T01:32:02.289Z,96517.03
2023-04-07T01:34:31.801Z,96512.34
2023-04-07T01:37:01.248Z,96524.94
2023-04-07T01:39:28.516Z,96529.03
2023-04-07T01:41:57.116Z,96557.31
2023-04-07T01:44:26.249Z,96545.88
2023-04-07T01:46:54.634Z,96519.44
2023-04-07T01:49:22.956Z,96518.97
2023-04-07T01:51:50.785Z,96501.81
2023-04-07T01:54:18.353Z,96505.47
2023-04-07T01:56:45.631Z,96500.31
2023-04-07T01:59:12.933Z,96492.28
2023-04-07T02:01:40.449Z,96497.72
2023-04-07T02:04:35.076Z,96488.47
2023-04-07T02:07:06.270Z,96481.31
2023-04-07T02:09:42.527Z,96479.75
2023-04-07T02:12:13.105Z,96477.34
2023-04-07T02:14:45.131Z,96474.13
2023-04-07T02:17:16.604Z,96463.97
2023-04-07T02:19:45.242Z,96470.50
2023-04-07T02:22:12.806Z,96459.56
2023-04-07T02:24:43.301Z,96470.50
2023-04-07T02:27:10.062Z,96462.84
2023-04-07T02:29:36.863Z,96454.34
2023-04-07T02:32:03.767Z,96449.34
2023-04-07T02:34:30.635Z,96444.94
2023-04-07T02:36:57.464Z,96447.09
2023-04-07T02:39:24.535Z,96435.84
2023-04-07T02:41:51.229Z,96434.19
2023-04-07T02:44:17.904Z,96422.47
2023-04-07T02:46:44.771Z,96417.63
2023-04-07T02:49:11.438Z,96411.09
2023-04-07T02:51:38.401Z,96420.97
2023-04-07T02:54:05.035Z,96410.03
2023-04-07T02:56:32.818Z,96406.41
2023-04-07T02:58:59.857Z,96417.63
2023-04-07T03:01:28.132Z,96414.16
2023-04-07T03:03:55.192Z,96410.63
2023-04-07T03:06:24.574Z,96414.91
2023-04-07T03:09:11.650Z,96417.19
2023-04-07T03:11:39.448Z,96422.81
2023-04-07T03:14:06.198Z,96413.09
2023-04-07T03:16:36.119Z,96416.59
2023-04-07T03:19:09.886Z,96417.94
2023-04-07T03:21:40.752Z,96413.84
2023-04-07T03:24:08.612Z,96428.28
2023-04-07T03:26:35.653Z,96422.34
2023-04-07T03:29:04.384Z,96424.19
2023-04-07T03:31:31.633Z,96432.69
2023-04-07T03:33:58.744Z,96435.13
2023-04-07T03:36:25.688Z,96425.25
2023-04-07T03:38:52.828Z,96419.97
2023-04-07T03:41:19.648Z,96409.03
2023-04-07T03:43:47.376Z,96410.53
2023-04-07T03:46:15.760Z,96400.66
2023-04-07T03:48:43.285Z,96408.72
2023-04-07T03:51:11.170Z,96410.53
2023-04-07T03:53:38.546Z,96407.47
2023-04-07T03:56:17.328Z,96401.44
2023-04-07T03:58:53.208Z,96405.50
2023-04-07T04:01:27.879Z,96409.31
2023-04-07T04:03:56.652Z,96410.81
2023-04-07T04:06:27.325Z,96401.56
2023-04-07T04:09:00.635Z,96411.75
2023-04-07T04:11:27.658Z,96408.53
2023-04-07T04:13:58.667Z,96415.22
2023-04-07T04:16:26.228Z,96412.03
2023-04-07T04:18:56.034Z,96403.66
2023-04-07T04:21:22.734Z,96408.22
2023-04-07T04:23:49.425Z,96409.16
2023-04-07T04:26:16.280Z,96411.75
2023-04-07T04:28:44.683Z,96410.69
2023-04-07T04:31:12.442Z,96416.59
2023-04-07T04:33:42.946Z,96426.19
2023-04-07T04:36:09.713Z,96409.31
2023-04-07T04:38:36.964Z,96415.25
2023-04-07T04:41:09.737Z,96422.22
2023-04-07T04:43:36.646Z,96417.69
2023-04-07T04:46:05.001Z,96434.84
2023-04-07T04:48:36.700Z,96432.56
2023-04-07T04:51:05.822Z,96428.00
2023-04-07T04:53:32.753Z,96412.66
2023-04-07T04:56:01.815Z,96420.53
2023-04-07T04:58:48.756Z,96417.66
2023-04-07T05:01:23.359Z,96421.94
2023-04-07T05:03:56.399Z,96422.84
2023-04-07T05:06:28.194Z,96425.13
2023-04-07T05:08:58.059Z,96437.88
2023-04-07T05:11:30.649Z,96434.84
2023-04-07T05:13:57.310Z,96436.81
2023-04-07T05:16:24.669Z,96439.09
2023-04-07T05:18:52.010Z,96438.22
2023-04-07T05:21:22.131Z,96447.78
2023-04-07T05:23:51.487Z,96477.09
2023-04-07T05:26:21.796Z,96453.84
2023-04-07T05:28:49.775Z,96457.66
2023-04-07T05:31:20.140Z,96468.28
2023-04-07T05:33:49.778Z,96469.50
2023-04-07T05:36:17.338Z,96476.81
2023-04-07T05:38:44.063Z,96463.72
2023-04-07T05:41:14.653Z,96512.41
2023-04-07T05:43:41.375Z,96509.97
2023-04-07T05:46:08.888Z,96484.59
2023-04-07T05:48:43.887Z,96486.09
2023-04-07T05:51:10.588Z,96456.91
2023-04-07T05:53:37.297Z,96469.06
2023-04-07T05:56:04.090Z,96478.50
2023-04-07T05:58:49.132Z,96489.44
2023-04-07T06:01:16.909Z,96477.88
2023-04-07T06:03:43.799Z,96479.69
2023-04-07T06:06:20.705Z,96483.97
2023-04-07T06:08:47.518Z,96480.44
2023-04-07T06:11:14.546Z,96487.75
2023-04-07T06:13:41.538Z,96493.09
2023-04-07T06:16:08.973Z,96500.84
2023-04-07T06:18:37.637Z,96506.47
2023-04-07T06:21:06.663Z,96514.38
2023-04-07T06:23:33.342Z,96524.28
2023-04-07T06:26:00.100Z,96534.44
2023-04-07T06:28:28.816Z,96547.84
2023-04-07T06:30:56.615Z,96561.56
2023-04-07T06:33:25.878Z,96563.97
2023-04-07T06:35:53.055Z,96572.94
2023-04-07T06:38:20.002Z,96578.09
2023-04-07T06:40:46.665Z,96580.41
2023-04-07T06:43:13.396Z,96582.84
2023-04-07T06:45:44.247Z,96589.53
2023-04-07T06:48:11.293Z,96586.97
2023-04-07T06:50:40.876Z,96599.75
2023-04-07T06:53:07.578Z,96608.72
2023-04-07T06:55:34.363Z,96600.34
2023-04-07T06:58:01.082Z,96596.41
2023-04-07T07:00:30.478Z,96610.69
2023-04-07T07:02:57.566Z,96611.00
2023-04-07T07:05:24.704Z,96617.38
2023-04-07T07:07:52.197Z,96624.25
2023-04-07T07:10:20.687Z,96630.03
2023-04-07T07:12:47.396Z,96626.66
2023-04-07T07:15:14.138Z,96632.31
2023-04-07T07:17:41.039Z,96633.06
2023-04-07T07:20:08.410Z,96641.88
2023-04-07T07:22:35.101Z,96648.91
2023-04-07T07:25:01.968Z,96641.59
2023-04-07T07:27:28.612Z,96650.13
2023-04-07T07:29:55.302Z,96663.66
2023-04-07T07:32:22.028Z,96661.53
2023-04-07T07:34:48.801Z,96673.72
2023-04-07T07:37:16.098Z,96663.34
2023-04-07T07:39:42.763Z,96686.50
2023-04-07T07:42:09.448Z,96676.91
2023-04-07T07:44:36.295Z,96683.16
2023-04-07T07:47:03.040Z,96675.22
2023-04-07T07:49:30.008Z,96678.00
2023-04-07T07:51:57.614Z,96680.56
2023-04-07T07:54:24.479Z,96689.84
2023-04-07T07:56:51.923Z,96696.41
2023-04-07T07:59:18.603Z,96710.28
2023-04-07T08:01:45.392Z,96701.72
2023-04-07T08:04:12.294Z,96705.25
2023-04-07T08:06:39.277Z,96700.50
2023-04-07T08:09:08.855Z,96717.25
2023-04-07T08:11:35.858Z,96725.50
2023-04-07T08:14:02.574Z,96725.34
2023-04-07T08:16:29.507Z,96735.69
2023-04-07T08:18:56.307Z,96747.56
2023-04-07T08:21:23.231Z,96750.31
2023-04-07T08:23:50.256Z,96745.75
2023-04-07T08:26:17.246Z,96751.22
2023-04-07T08:28:44.031Z,96750.91
2023-04-07T08:31:10.744Z,96770.00
2023-04-07T08:33:37.492Z,96765.06
2023-04-07T08:36:04.729Z,96779.25
2023-04-07T08:38:31.669Z,96791.28
2023-04-07T08:41:20.223Z,96787.97
2023-04-07T08:43:49.679Z,96800.13
2023-04-07T08:46:20.253Z,96814.00
2023-04-07T08:48:51.320Z,96827.28
2023-04-07T08:51:27.534Z,96832.44
2023-04-07T08:53:58.276Z,96826.19
2023-04-07T08:56:26.102Z,96825.41
2023-04-07T08:58:53.275Z,96817.94
2023-04-07T09:01:21.352Z,96817.59
2023-04-07T09:03:49.196Z,96820.47
2023-04-07T09:06:16.395Z,96817.38
2023-04-07T09:08:43.042Z,96822.47
2023-04-07T09:11:09.743Z,96833.59
2023-04-07T09:13:36.629Z,96837.72
2023-04-07T09:16:03.784Z,96837.13
2023-04-07T09:18:30.825Z,96834.66
2023-04-07T09:21:03.416Z,96844.41
2023-04-07T09:23:38.568Z,96841.50
2023-04-07T09:26:24.931Z,96845.28
2023-04-07T09:28:57.856Z,96836.88
2023-04-07T09:31:44.144Z,96846.69
2023-04-07T09:34:29.940Z,96842.25
2023-04-07T09:36:57.625Z,96850.78
2023-04-07T09:39:24.944Z,96850.19
2023-04-07T09:41:52.270Z,96864.22
2023-04-07T09:44:20.097Z,96858.75
2023-04-07T09:46:54.841Z,96865.03
2023-04-07T09:49:21.747Z,96859.19
2023-04-07T09:52:07.852Z,96863.88
2023-04-07T09:54:39.923Z,96872.22
2023-04-07T09:57:11.233Z,96876.28
2023-04-07T09:59:40.000Z,96870.09
2023-04-07T10:02:07.911Z,96879.72
2023-04-07T10:04:35.022Z,96877.03
2023-04-07T10:07:03.753Z,96889.91
2023-04-07T10:09:31.244Z,96907.38
2023-04-07T10:11:59.970Z,96907.06
2023-04-07T10:14:31.717Z,96919.19
2023-04-07T10:17:03.397Z,96903.19
2023-04-07T10:19:33.015Z,96922.16
2023-04-07T10:22:00.482Z,96917.72
2023-04-07T10:24:48.941Z,96932.75
2023-04-07T10:27:21.084Z,96956.00
2023-04-07T10:29:51.561Z,96959.38
2023-04-07T10:32:18.596Z,96980.47
2023-04-07T10:34:51.167Z,96985.25
2023-04-07T10:37:21.392Z,97005.44
2023-04-07T10:39:49.766Z,97008.84
2023-04-07T10:42:38.154Z,97066.91
2023-04-07T10:45:05.762Z,97040.75
2023-04-07T10:47:32.863Z,97079.22
2023-04-07T10:50:19.752Z,97087.25
2023-04-07T10:52:47.901Z,97084.03
2023-04-07T10:55:34.653Z,97109.16
2023-04-07T10:58:21.230Z,97142.94
2023-04-07T11:01:00.139Z,97114.28
2023-04-07T11:03:29.473Z,97156.22
2023-04-07T11:06:05.352Z,97159.25
2023-04-07T11:08:35.816Z,97144.16
2023-04-07T11:11:03.739Z,97147.97
2023-04-07T11:13:41.040Z,97144.63
2023-04-07T11:16:08.213Z,97143.44
2023-04-07T11:18:37.391Z,97135.28
2023-04-07T11:21:06.588Z,97108.53
2023-04-07T11:23:44.537Z,97110.16
2023-04-07T11:26:13.113Z,97112.03
2023-04-07T11:28:54.213Z,97104.50
2023-04-07T11:31:31.921Z,97099.63
2023-04-07T11:34:04.966Z,97109.88
2023-04-07T11:36:34.076Z,97110.72
2023-04-07T11:39:02.609Z,97106.56
2023-04-07T11:41:31.292Z,97097.97
2023-04-07T11:44:09.509Z,97104.53
2023-04-07T11:46:37.045Z,97098.06
2023-04-07T11:49:15.025Z,97103.00
2023-04-07T11:51:44.060Z,97108.78
2023-04-07T11:54:11.449Z,97086.72
2023-04-07T11:56:47.012Z,97083.06
2023-04-07T11:59:24.726Z,97087.84
2023-04-07T12:01:54.715Z,97108.41
2023-04-07T12:04:24.055Z,97121.19
2023-04-07T12:06:51.722Z,97108.03
2023-04-07T12:09:30.166Z,97105.25
2023-04-07T12:11:58.015Z,97113.97
2023-04-07T12:14:25.959Z,97107.66
2023-04-07T12:16:56.432Z,97088.56
2023-04-07T12:19:24.222Z,97106.19
2023-04-07T12:21:51.546Z,97134.50
2023-04-07T12:24:18.437Z,97122.75
2023-04-07T12:26:45.413Z,97112.25
2023-04-07T12:29:12.069Z,97106.91
2023-04-07T12:31:38.813Z,97111.91
2023-04-07T12:34:05.815Z,97109.66
2023-04-07T12:36:33.480Z,97103.22
2023-04-07T12:39:00.239Z,97090.22
2023-04-07T12:41:27.827Z,97088.34
2023-04-07T12:43:54.834Z,97098.75
2023-04-07T12:46:21.923Z,97087.47
2023-04-07T12:48:48.698Z,97092.00
2023-04-07T12:51:15.782Z,97073.13
2023-04-07T12:53:42.653Z,97077.19
2023-04-07T12:56:10.980Z,97083.94
2023-04-07T12:58:37.737Z,97090.22
2023-04-07T13:01:04.716Z,97087.91
2023-04-07T13:03:31.568Z,97101.69
2023-04-07T13:06:01.574Z,97096.47
2023-04-07T13:08:29.449Z,97103.53
2023-04-07T13:10:56.880Z,97117.00
2023-04-07T13:13:24.139Z,97130.13
2023-04-07T13:15:51.224Z,97138.81
2023-04-07T13:18:18.038Z,97124.44
2023-04-07T13:20:54.359Z,97144.47
2023-04-07T13:23:42.250Z,97127.03
2023-04-07T13:26:10.502Z,97113.97
2023-04-07T13:28:37.611Z,97113.97
2023-04-07T13:31:04.397Z,97129.69
2023-04-07T13:33:31.295Z,97129.34
2023-04-07T13:35:58.161Z,97119.72
2023-04-07T13:38:25.086Z,97147.75
2023-04-07T13:40:51.918Z,97160.91
2023-04-07T13:43:19.252Z,97164.94
2023-04-07T13:45:47.024Z,97141.19
2023-04-07T13:48:13.985Z,97151.59
2023-04-07T13:50:41.112Z,97153.28
2023-04-07T13:53:07.830Z,97138.59
2023-04-07T13:55:34.648Z,97148.38
2023-04-07T13:58:01.472Z,97123.66
2023-04-07T14:00:28.293Z,97143.38
2023-04-07T14:02:56.421Z,97125.47
2023-04-07T14:05:23.776Z,97124.94
2023-04-07T14:07:51.249Z,97140.09
2023-04-07T14:10:18.281Z,97142.19
2023-04-07T14:12:45.071Z,97127.31
2023-04-07T14:15:11.970Z,97140.53
2023-04-07T14:17:38.881Z,97171.13
2023-04-07T14:20:06.593Z,97171.88
2023-04-07T14:22:33.576Z,97166.44
2023-04-07T14:25:00.709Z,97174.88
2023-04-07T14:27:31.351Z,97190.19
2023-04-07T14:29:59.711Z,97186.34
2023-04-07T14:32:29.938Z,97227.03
2023-04-07T14:34:59.447Z,97232.25
2023-04-07T14:37:28.665Z,97250.03
2023-04-07T14:42:26.111Z,97263.59
2023-04-07T14:44:53.342Z,97252.63
2023-04-07T14:47:20.277Z,97269.59
2023-04-07T14:49:47.305Z,97282.56
2023-04-07T14:52:14.311Z,97277.81
2023-04-07T14:54:41.100Z,97269.69
2023-04-07T14:57:07.826Z,97275.16
2023-04-07T14:59:34.631Z,97279.69
2023-04-07T15:02:01.548Z,97245.19
2023-04-07T15:04:28.631Z,97256.41
2023-04-07T15:06:55.960Z,97258.03
2023-04-07T15:09:22.732Z,97258.63
2023-04-07T15:11:49.524Z,97250.16
2023-04-07T15:14:16.362Z,97295.16
2023-04-07T15:16:43.078Z,97246.69
2023-04-07T15:19:10.094Z,97253.19
2023-04-07T15:21:36.739Z,97281.06
2023-04-07T15:24:03.522Z,97238.72
2023-04-07T15:26:30.428Z,97235.34
2023-04-07T15:28:57.181Z,97257.00
2023-04-07T15:31:25.509Z,97246.25
2023-04-07T15:33:52.869Z,97244.22
2023-04-07T15:36:19.573Z,97263.84
2023-04-07T15:38:46.361Z,97279.63
2023-04-07T15:41:17.153Z,97283.50
2023-04-07T15:43:44.137Z,97284.56
2023-04-07T15:46:10.876Z,97276.75
2023-04-07T15:48:37.501Z,97293.19
2023-04-07T15:51:04.376Z,97282.19
2023-04-07T15:53:31.172Z,97272.53
2023-04-07T15:55:58.092Z,97268.25
2023-04-07T15:58:24.941Z,97259.59
2023-04-07T16:00:52.024Z,97251.59
2023-04-07T16:03:19.156Z,97252.06
2023-04-07T16:05:46.102Z,97258.84
2023-04-07T16:08:13.967Z,97250.72
2023-04-07T16:10:40.844Z,97252.09
2023-04-07T16:13:07.541Z,97239.41
2023-04-07T16:15:40.683Z,97222.75
2023-04-07T16:18:12.628Z,97215.72
2023-04-07T16:20:39.735Z,97223.03
2023-04-07T16:23:06.507Z,97205.63
2023-04-07T16:25:34.065Z,97195.41
2023-04-07T16:28:00.851Z,97191.09
2023-04-07T16:30:27.615Z,97177.81
2023-04-07T16:32:54.347Z,97163.00
2023-04-07T16:35:21.434Z,97139.63
2023-04-07T16:37:50.173Z,97129.84
2023-04-07T16:40:17.069Z,97118.41
2023-04-07T16:42:43.801Z,97117.16
2023-04-07T16:45:11.335Z,97127.09
2023-04-07T16:47:38.545Z,97133.81
2023-04-07T16:50:05.984Z,97142.97
2023-04-07T16:52:32.839Z,97148.78
2023-04-07T16:55:00.227Z,97156.28
2023-04-07T16:57:26.984Z,97161.13
2023-04-07T16:59:53.728Z,97153.69
2023-04-07T17:02:20.793Z,97147.69
2023-04-07T17:04:47.676Z,97146.19
2023-04-07T17:07:14.379Z,97148.47
2023-04-07T17:09:41.491Z,97157.72
2023-04-07T17:12:08.302Z,97161.84
2023-04-07T17:14:35.178Z,97167.50
2023-04-07T17:17:02.421Z,97156.75
2023-04-07T17:19:29.484Z,97155.38
2023-04-07T17:21:56.448Z,97159.50
2023-04-07T17:24:23.462Z,97145.78
2023-04-07T17:26:50.327Z,97146.06
2023-04-07T17:29:17.360Z,97145.78
2023-04-07T17:31:44.115Z,97143.19
2023-04-07T17:34:11.860Z,97151.13
2023-04-07T17:36:38.772Z,97124.22
2023-04-07T17:39:05.538Z,97128.03
2023-04-07T17:41:34.712Z,97130.63
2023-04-07T17:44:02.288Z,97123.31
2023-04-07T17:46:29.434Z,97125.63
2023-04-07T17:48:59.958Z,97124.69
2023-04-07T17:51:27.905Z,97122.41
2023-04-07T17:53:55.133Z,97122.53
2023-04-07T17:56:22.266Z,97115.97
2023-04-07T17:58:49.279Z,97118.72
2023-04-07T18:01:17.123Z,97120.84
2023-04-07T18:03:44.492Z,97116.84
2023-04-07T18:06:16.664Z,97120.66
2023-04-07T18:08:46.558Z,97127.09
2023-04-07T18:11:14.346Z,97127.66
2023-04-07T18:13:41.327Z,97131.59
2023-04-07T18:16:09.764Z,97130.72
2023-04-07T18:18:38.237Z,97129.66
2023-04-07T18:21:06.820Z,97140.31
2023-04-07T18:23:34.395Z,97136.00
2023-04-07T18:26:05.308Z,97124.88
2023-04-07T18:28:32.609Z,97133.72
2023-04-07T18:31:04.857Z,97132.06
2023-04-07T18:33:33.290Z,97141.19
2023-04-07T18:36:02.600Z,97142.09
2023-04-07T18:38:29.640Z,97149.69
2023-04-07T18:40:56.462Z,97149.97
2023-04-07T18:43:23.980Z,97147.56
2023-04-07T18:45:52.828Z,97145.41
2023-04-07T18:48:20.133Z,97150.91
2023-04-07T18:50:52.306Z,97160.88
2023-04-07T18:53:23.322Z,97164.09
2023-04-07T18:55:50.209Z,97162.09
2023-04-07T18:58:17.113Z,97163.28
2023-04-07T19:00:44.719Z,97162.03
2023-04-07T19:03:12.022Z,97161.69
2023-04-07T19:05:41.973Z,97156.72
2023-04-07T19:08:09.609Z,97153.56
2023-04-07T19:10:36.320Z,97156.56
2023-04-07T19:13:03.866Z,97145.72
2023-04-07T19:15:36.612Z,97144.97
2023-04-07T19:18:03.562Z,97136.31
2023-04-07T19:20:30.934Z,97147.84
2023-04-07T19:22:57.689Z,97142.31
2023-04-07T19:25:24.665Z,97141.13
2023-04-07T19:27:51.771Z,97137.28
2023-04-07T19:30:19.507Z,97151.16
2023-04-07T19:32:46.339Z,97138.00
2023-04-07T19:35:13.094Z,97148.06
2023-04-07T19:37:42.689Z,97153.53
2023-04-07T19:40:09.838Z,97136.66
2023-04-07T19:42:36.845Z,97135.41
2023-04-07T19:45:07.518Z,97130.97
2023-04-07T19:47:35.432Z,97124.72
2023-04-07T19:50:04.101Z,97122.97
2023-04-07T19:52:32.198Z,97122.97
2023-04-07T19:54:59.995Z,97119.63
2023-04-07T19:57:28.034Z,97122.81
2023-04-07T19:59:55.031Z,97118.09
2023-04-07T20:02:21.810Z,97120.06
2023-04-07T20:04:48.679Z,97119.28
2023-04-07T20:07:15.794Z,97115.47
2023-04-07T20:09:42.598Z,97113.06
2023-04-07T20:12:09.436Z,97119.88
2023-04-07T20:14:36.185Z,97109.22
2023-04-07T20:17:03.058Z,97118.81
2023-04-07T20:19:29.874Z,97116.91
2023-04-07T20:21:56.724Z,97121.72
2023-04-07T20:24:23.423Z,97112.81
2023-04-07T20:26:50.124Z,97116.47
2023-04-07T20:29:16.887Z,97110.97
2023-04-07T20:31:44.277Z,97110.38
2023-04-07T20:34:10.930Z,97107.50
2023-04-07T20:36:37.620Z,97104.63
2023-04-07T20:39:04.441Z,97107.69
2023-04-07T20:41:31.271Z,97099.94
2023-04-07T20:43:58.781Z,97104.63
2023-04-07T20:46:25.634Z,97105.38
2023-04-07T20:48:53.017Z,97108.75
2023-04-07T20:51:19.805Z,97099.94
2023-04-07T20:53:46.504Z,97101.00
2023-04-07T20:56:13.408Z,97098.28
2023-04-07T20:58:40.327Z,97105.28
2023-04-07T21:01:07.139Z,97102.84
2023-04-07T21:03:33.970Z,97087.94
2023-04-07T21:06:01.041Z,97089.47
2023-04-07T21:08:28.112Z,97090.06
2023-04-07T21:10:54.839Z,97094.94
2023-04-07T21:13:22.574Z,97097.84
2023-04-07T21:15:49.425Z,97096.34
2023-04-07T21:18:16.147Z,97107.88
2023-04-07T21:20:42.966Z,97099.34
2023-04-07T21:23:09.694Z,97106.94
2023-04-07T21:25:39.572Z,97098.97
2023-04-07T21:28:06.637Z,97098.59
2023-04-07T21:30:33.375Z,97098.09
2023-04-07T21:33:00.233Z,97096.38
2023-04-07T21:35:28.895Z,97099.44
2023-04-07T21:37:56.525Z,97096.66
2023-04-07T21:40:23.397Z,97096.59
2023-04-07T21:42:52.068Z,97095.03
2023-04-07T21:45:19.711Z,97098.69
2023-04-07T21:47:47.027Z,97099.34
2023-04-07T21:50:13.953Z,97103.47
2023-04-07T21:52:42.670Z,97105.44
2023-04-07T21:55:10.955Z,97103.66
2023-04-07T21:57:37.843Z,97115.03
2023-04-07T22:00:07.488Z,97111.69
2023-04-07T22:02:41.594Z,97114.00
2023-04-07T22:05:08.932Z,97106.81
2023-04-07T22:07:36.254Z,97103.16
2023-04-07T22:10:03.104Z,97110.19
2023-04-07T22:12:29.780Z,97105.00
2023-04-07T22:14:56.511Z,97113.22
2023-04-07T22:17:23.150Z,97106.81
2023-04-07T22:19:49.786Z,97105.28
2023-04-07T22:22:16.547Z,97107.88
2023-04-07T22:24:43.226Z,97107.13
2023-04-07T22:27:10.099Z,97099.34
2023-04-07T22:29:36.758Z,97116.72
2023-04-07T22:32:03.457Z,97112.28
2023-04-07T22:34:30.175Z,97114.28
2023-04-07T22:36:56.850Z,97116.41
2023-04-07T22:39:23.902Z,97124.03
2023-04-07T22:41:50.671Z,97127.22
2023-04-07T22:44:17.397Z,97131.63
2023-04-07T22:46:44.209Z,97136.66
2023-04-07T22:49:11.125Z,97129.53
2023-04-07T22:51:37.792Z,97128.94
2023-04-07T22:54:04.558Z,97141.97
2023-04-07T22:56:31.349Z,97135.47
2023-04-07T22:59:05.522Z,97142.28
2023-04-07T23:01:33.167Z,97140.66
2023-04-07T23:04:00.159Z,97134.72
2023-04-07T23:06:28.725Z,97145.94
2023-04-07T23:08:55.930Z,97139.56
2023-04-07T23:11:22.723Z,97146.09
2023-04-07T23:13:49.705Z,97154.25
2023-04-07T23:16:16.597Z,97166.41
2023-04-07T23:18:43.420Z,97162.59
2023-04-07T23:21:11.453Z,97172.47
2023-04-07T23:23:39.236Z,97173.22
2023-04-07T23:26:06.975Z,97185.59
2023-04-07T23:28:33.887Z,97179.94
2023-04-07T23:31:01.758Z,97183.56
2023-04-07T23:33:30.789Z,97184.81
2023-04-07T23:35:58.587Z,97188.47
2023-04-07T23:38:26.150Z,97190.50
2023-04-07T23:40:53.482Z,97192.28
2023-04-07T23:43:20.373Z,97192.03
2023-04-07T23:45:47.389Z,97194.13
2023-04-07T23:48:14.850Z,97193.59
2023-04-07T23:50:41.567Z,97193.28
2023-04-07T23:53:08.482Z,97201.06
2023-04-07T23:55:35.614Z,97199.22
2023-04-07T23:58:02.367Z,97197.22
